Time;durP1;ratioP1;P1;durP2;ratioP2;P2;SDS_P1;SDS_P2;PMS_P1;PMS_P2;Temp;Humidity;BMP_temperature;BMP_pressure;BME280_temperature;BME280_humidity;BME280_pressure;Samples;Min_cycle;Max_cycle;Signal;HPM_P1;HPM_P2
2023/05/15 00:00:46;;;;;;;0.80;0.50;;;13.40;99.90;;;;;;4951151;28;20280;-75
2023/05/15 00:03:15;;;;;;;0.60;0.60;;;13.50;99.90;;;;;;4950256;28;20986;-75
2023/05/15 00:05:43;;;;;;;0.57;0.40;;;13.60;99.90;;;;;;4949824;28;20301;-75
2023/05/15 00:08:11;;;;;;;0.60;0.40;;;13.70;99.90;;;;;;4951168;28;20750;-75
2023/05/15 00:10:39;;;;;;;0.50;0.40;;;13.80;99.90;;;;;;4952135;28;20258;-77
2023/05/15 00:13:17;;;;;;;0.70;0.70;;;13.90;99.90;;;;;;4951812;28;20207;-75
2023/05/15 00:15:47;;;;;;;0.85;0.73;;;14.00;99.90;;;;;;4952189;28;20645;-75
2023/05/15 00:18:15;;;;;;;0.60;0.45;;;14.10;99.90;;;;;;4952241;28;20692;-74
2023/05/15 00:20:43;;;;;;;0.95;0.70;;;14.10;99.90;;;;;;4951906;28;20267;-74
2023/05/15 00:23:10;;;;;;;0.70;0.50;;;14.00;99.90;;;;;;4946116;28;20238;-74
2023/05/15 00:25:38;;;;;;;1.48;0.77;;;14.10;99.90;;;;;;4952361;28;20211;-74
2023/05/15 00:28:06;;;;;;;0.60;0.50;;;14.00;99.90;;;;;;4951911;28;20307;-72
2023/05/15 00:30:34;;;;;;;0.60;0.60;;;14.00;99.90;;;;;;4952036;28;20322;-74
2023/05/15 00:33:03;;;;;;;0.60;0.50;;;14.00;99.90;;;;;;4951959;28;20249;-75
2023/05/15 00:35:32;;;;;;;1.00;0.90;;;14.00;99.90;;;;;;4952347;28;20218;-75
2023/05/15 00:38:00;;;;;;;0.90;0.50;;;14.00;99.90;;;;;;4951955;28;23411;-76
2023/05/15 00:40:29;;;;;;;0.65;0.60;;;14.00;99.90;;;;;;4949840;28;20231;-75
2023/05/15 00:42:59;;;;;;;0.60;0.50;;;13.90;99.90;;;;;;4951370;28;20207;-75
2023/05/15 00:45:28;;;;;;;0.60;0.50;;;13.90;99.90;;;;;;4951836;29;20682;-74
2023/05/15 00:47:58;;;;;;;0.60;0.52;;;14.00;99.90;;;;;;4951868;28;20250;-75
2023/05/15 00:50:29;;;;;;;1.02;0.50;;;14.00;99.90;;;;;;4991223;23;20238;-66
2023/05/15 00:52:57;;;;;;;0.90;0.47;;;13.90;99.90;;;;;;4972546;28;20242;-65
2023/05/15 00:55:26;;;;;;;0.60;0.57;;;14.00;99.90;;;;;;4990436;28;20206;-66
2023/05/15 00:57:56;;;;;;;0.60;0.50;;;14.00;99.90;;;;;;4990205;28;20206;-65
2023/05/15 01:00:25;;;;;;;0.70;0.70;;;14.00;99.90;;;;;;4990500;28;20317;-65
2023/05/15 01:02:54;;;;;;;1.13;0.70;;;14.00;99.90;;;;;;4990236;28;20202;-64
2023/05/15 01:05:22;;;;;;;0.60;0.50;;;13.90;99.90;;;;;;4990667;28;20259;-64
2023/05/15 01:07:57;;;;;;;0.60;0.50;;;13.90;99.90;;;;;;4990341;28;20673;-64
2023/05/15 01:10:25;;;;;;;1.30;1.20;;;13.80;99.90;;;;;;4990650;28;20251;-64
2023/05/15 01:12:54;;;;;;;0.68;0.60;;;13.80;99.90;;;;;;4989723;28;20259;-64
2023/05/15 01:15:23;;;;;;;0.70;0.60;;;13.70;99.90;;;;;;4991697;28;20213;-64
2023/05/15 01:17:51;;;;;;;0.70;0.50;;;13.70;99.90;;;;;;4994353;28;20212;-64
2023/05/15 01:20:22;;;;;;;0.80;0.70;;;13.60;99.90;;;;;;4989387;28;20226;-64
2023/05/15 01:23:04;;;;;;;0.60;0.50;;;13.50;99.90;;;;;;4975471;28;20206;-62
2023/05/15 01:25:47;;;;;;;0.80;0.60;;;13.50;99.90;;;;;;4994411;28;20212;-61
2023/05/15 01:28:22;;;;;;;1.00;0.70;;;13.50;99.90;;;;;;4993984;28;20300;-61
2023/05/15 01:30:52;;;;;;;1.00;0.90;;;13.50;99.90;;;;;;4993806;28;20312;-62
2023/05/15 01:33:24;;;;;;;0.60;0.50;;;13.10;99.90;;;;;;4994360;28;20198;-61
2023/05/15 01:35:58;;;;;;;0.75;0.68;;;12.90;99.90;;;;;;4994150;28;20248;-61
2023/05/15 01:38:34;;;;;;;0.82;0.68;;;12.70;99.90;;;;;;4993843;28;20205;-62
2023/05/15 01:41:10;;;;;;;0.70;0.70;;;12.70;99.90;;;;;;4993939;28;20253;-65
2023/05/15 01:43:44;;;;;;;0.70;0.50;;;12.70;99.90;;;;;;4994088;28;20316;-66
2023/05/15 01:46:17;;;;;;;0.68;0.65;;;12.80;99.90;;;;;;4993985;28;20216;-64
2023/05/15 01:48:46;;;;;;;0.80;0.65;;;12.90;99.90;;;;;;4993798;28;20225;-65
2023/05/15 01:51:16;;;;;;;0.77;0.77;;;13.00;99.90;;;;;;4981459;28;20644;-64
2023/05/15 01:53:45;;;;;;;0.88;0.73;;;12.90;99.90;;;;;;4983383;28;20237;-64
2023/05/15 01:56:15;;;;;;;0.60;0.57;;;12.70;99.90;;;;;;4986185;28;20293;-64
2023/05/15 01:58:45;;;;;;;0.68;0.60;;;12.80;99.90;;;;;;4993750;28;20233;-65
2023/05/15 02:01:13;;;;;;;0.60;0.50;;;12.80;99.90;;;;;;4985887;28;20320;-63
2023/05/15 02:03:42;;;;;;;0.90;0.65;;;12.80;99.90;;;;;;4993788;28;20264;-64
2023/05/15 02:06:11;;;;;;;0.70;0.68;;;12.90;99.90;;;;;;4993064;28;20205;-64
2023/05/15 02:08:40;;;;;;;0.90;0.47;;;12.90;99.90;;;;;;4993408;28;20240;-64
2023/05/15 02:11:09;;;;;;;0.70;0.50;;;12.90;99.90;;;;;;4993169;28;20261;-65
2023/05/15 02:13:38;;;;;;;0.80;0.70;;;13.00;99.90;;;;;;4993487;28;20236;-64
2023/05/15 02:16:07;;;;;;;0.98;0.60;;;13.10;99.90;;;;;;4992718;28;22123;-64
2023/05/15 02:18:36;;;;;;;0.80;0.50;;;13.10;99.90;;;;;;4991634;28;20296;-64
2023/05/15 02:21:04;;;;;;;0.60;0.47;;;13.10;99.90;;;;;;4989398;28;20308;-65
2023/05/15 02:23:32;;;;;;;0.93;0.60;;;13.10;99.90;;;;;;4990092;28;20355;-64
2023/05/15 02:26:12;;;;;;;0.60;0.60;;;13.00;99.90;;;;;;4990751;28;20744;-65
2023/05/15 02:28:46;;;;;;;0.60;0.50;;;13.00;99.90;;;;;;4988806;28;20368;-64
2023/05/15 02:31:25;;;;;;;0.70;0.63;;;12.90;99.90;;;;;;4983761;28;20313;-64
2023/05/15 02:33:59;;;;;;;1.00;0.75;;;12.90;99.90;;;;;;4990753;28;20263;-65
2023/05/15 02:36:32;;;;;;;0.68;0.68;;;12.90;99.90;;;;;;4987227;28;20216;-65
2023/05/15 02:39:01;;;;;;;0.60;0.50;;;12.90;99.90;;;;;;4987662;28;20206;-64
2023/05/15 02:41:31;;;;;;;0.60;0.60;;;12.80;99.90;;;;;;4991104;28;20237;-64
2023/05/15 02:44:01;;;;;;;0.70;0.60;;;12.80;99.90;;;;;;4989729;28;20289;-64
2023/05/15 02:46:31;;;;;;;0.60;0.50;;;12.80;99.90;;;;;;4986480;28;20199;-64
2023/05/15 02:48:59;;;;;;;0.60;0.40;;;12.80;99.90;;;;;;4987120;28;20249;-64
2023/05/15 02:51:28;;;;;;;0.70;0.70;;;12.80;99.90;;;;;;4987129;28;20252;-64
2023/05/15 02:53:59;;;;;;;0.60;0.50;;;12.80;99.90;;;;;;4988770;28;20267;-64
2023/05/15 02:56:27;;;;;;;0.73;0.65;;;12.80;99.90;;;;;;4990355;28;20736;-65
2023/05/15 02:58:56;;;;;;;0.70;0.50;;;12.70;99.90;;;;;;4990764;28;20241;-65
2023/05/15 03:01:24;;;;;;;0.70;0.60;;;12.70;99.90;;;;;;4989900;28;20308;-65
2023/05/15 03:03:53;;;;;;;0.60;0.50;;;12.80;99.90;;;;;;4990645;28;20297;-63
2023/05/15 03:06:21;;;;;;;0.70;0.60;;;12.80;99.90;;;;;;4989955;28;20305;-61
2023/05/15 03:08:49;;;;;;;0.70;0.60;;;12.90;99.90;;;;;;4987086;28;20681;-64
2023/05/15 03:11:18;;;;;;;1.08;0.63;;;12.90;99.90;;;;;;4989728;28;20719;-63
2023/05/15 03:13:46;;;;;;;0.60;0.50;;;12.90;99.90;;;;;;4988949;28;20229;-62
2023/05/15 03:16:13;;;;;;;0.70;0.70;;;12.90;99.90;;;;;;4991080;28;20202;-62
2023/05/15 03:18:42;;;;;;;0.60;0.43;;;12.90;99.90;;;;;;4987808;28;20305;-63
2023/05/15 03:21:11;;;;;;;0.70;0.40;;;12.90;99.90;;;;;;4988914;28;20265;-65
2023/05/15 03:23:39;;;;;;;1.05;0.68;;;12.80;99.90;;;;;;4988861;28;20680;-66
2023/05/15 03:26:06;;;;;;;0.82;0.82;;;12.80;99.90;;;;;;4986783;28;20724;-65
2023/05/15 03:28:34;;;;;;;0.60;0.50;;;12.80;99.90;;;;;;4991929;28;20233;-65
2023/05/15 03:31:03;;;;;;;1.10;1.00;;;12.70;99.90;;;;;;4991505;28;20225;-64
2023/05/15 03:33:31;;;;;;;0.70;0.70;;;12.70;99.90;;;;;;4992146;28;20252;-63
2023/05/15 03:35:59;;;;;;;0.70;0.60;;;12.60;99.90;;;;;;4991010;28;20620;-64
2023/05/15 03:38:29;;;;;;;1.00;0.70;;;12.60;99.90;;;;;;4988082;28;20212;-64
2023/05/15 03:40:56;;;;;;;1.02;0.93;;;12.70;99.90;;;;;;4989167;28;20229;-65
2023/05/15 03:43:24;;;;;;;0.60;0.45;;;12.60;99.90;;;;;;4990766;28;20707;-65
2023/05/15 03:45:52;;;;;;;0.93;0.60;;;12.70;99.90;;;;;;4988894;28;20209;-64
2023/05/15 03:48:20;;;;;;;0.80;0.80;;;12.70;99.90;;;;;;4988467;28;20552;-65
2023/05/15 03:50:48;;;;;;;0.95;0.80;;;12.60;99.90;;;;;;4986936;28;20260;-63
2023/05/15 03:53:16;;;;;;;0.73;0.70;;;12.60;99.90;;;;;;4988249;28;20707;-63
2023/05/15 03:55:45;;;;;;;1.25;1.15;;;12.60;99.90;;;;;;4990725;28;20301;-63
2023/05/15 03:58:13;;;;;;;0.63;0.63;;;12.60;99.90;;;;;;4989058;28;20710;-64
2023/05/15 04:00:41;;;;;;;0.70;0.70;;;12.60;99.90;;;;;;4987824;28;20257;-62
2023/05/15 04:03:09;;;;;;;1.00;0.90;;;12.60;99.90;;;;;;4985942;28;20217;-63
2023/05/15 04:05:37;;;;;;;0.57;0.45;;;12.60;99.90;;;;;;4985253;28;20310;-62
2023/05/15 04:08:05;;;;;;;1.10;1.00;;;12.60;99.90;;;;;;4983737;28;20575;-61
2023/05/15 04:10:33;;;;;;;1.30;0.88;;;12.60;99.90;;;;;;4986288;28;20232;-62
2023/05/15 04:13:02;;;;;;;0.70;0.70;;;12.60;99.90;;;;;;4988873;28;20237;-63
2023/05/15 04:15:30;;;;;;;0.70;0.70;;;12.60;99.90;;;;;;4986592;28;20218;-65
2023/05/15 04:17:58;;;;;;;0.70;0.50;;;12.70;99.90;;;;;;4986520;28;20281;-64
2023/05/15 04:20:26;;;;;;;0.60;0.50;;;12.70;99.90;;;;;;4985817;28;20222;-62
2023/05/15 04:22:54;;;;;;;0.70;0.70;;;12.80;99.90;;;;;;4984404;28;20249;-62
2023/05/15 04:25:23;;;;;;;0.77;0.70;;;12.80;99.90;;;;;;4983906;28;20570;-62
2023/05/15 04:27:51;;;;;;;0.70;0.70;;;12.70;99.90;;;;;;4986084;28;20206;-62
2023/05/15 04:30:20;;;;;;;1.05;0.95;;;12.70;99.90;;;;;;4979108;28;20225;-62
2023/05/15 04:32:50;;;;;;;0.60;0.60;;;12.80;99.90;;;;;;4985941;28;20622;-62
2023/05/15 04:35:18;;;;;;;0.90;0.70;;;12.90;99.90;;;;;;4983510;28;20206;-61
2023/05/15 04:37:46;;;;;;;0.73;0.60;;;12.90;99.90;;;;;;4989706;28;20231;-62
2023/05/15 04:40:15;;;;;;;2.88;2.38;;;12.90;99.90;;;;;;4985469;28;20887;-62
2023/05/15 04:42:43;;;;;;;0.68;0.68;;;12.90;99.90;;;;;;4986144;28;20292;-62
2023/05/15 04:45:11;;;;;;;0.77;0.70;;;13.00;99.90;;;;;;4985565;28;20293;-62
2023/05/15 04:47:40;;;;;;;0.90;0.63;;;13.00;99.90;;;;;;4987011;28;20221;-61
2023/05/15 04:50:09;;;;;;;0.63;0.50;;;13.10;99.90;;;;;;4984882;28;20237;-62
2023/05/15 04:52:37;;;;;;;0.68;0.43;;;13.20;99.90;;;;;;4985006;28;20288;-62
2023/05/15 04:55:06;;;;;;;0.77;0.77;;;13.30;99.90;;;;;;4985987;28;20281;-63
2023/05/15 04:57:34;;;;;;;0.70;0.60;;;13.30;99.90;;;;;;4986668;28;20260;-63
2023/05/15 05:00:04;;;;;;;1.00;0.90;;;13.40;99.90;;;;;;4979726;28;20261;-63
2023/05/15 05:02:32;;;;;;;0.80;0.65;;;13.50;99.90;;;;;;4983341;28;20258;-64
2023/05/15 05:05:01;;;;;;;0.60;0.50;;;13.50;99.90;;;;;;4981706;28;20212;-62
2023/05/15 05:07:29;;;;;;;0.60;0.50;;;13.60;99.90;;;;;;4984096;28;20286;-62
2023/05/15 05:09:57;;;;;;;0.60;0.55;;;13.70;99.90;;;;;;4982358;28;20304;-62
2023/05/15 05:12:25;;;;;;;1.15;0.80;;;13.70;99.90;;;;;;4984535;28;20194;-63
2023/05/15 05:14:55;;;;;;;0.70;0.60;;;13.80;99.90;;;;;;4986531;28;20202;-63
2023/05/15 05:17:23;;;;;;;0.60;0.50;;;14.00;99.90;;;;;;4984717;28;20229;-63
2023/05/15 05:19:51;;;;;;;0.60;0.40;;;14.10;99.90;;;;;;4985148;28;20230;-62
2023/05/15 05:22:20;;;;;;;1.02;0.80;;;14.10;99.90;;;;;;4984940;28;20704;-62
2023/05/15 05:24:48;;;;;;;0.60;0.50;;;14.20;99.90;;;;;;4982653;28;20213;-63
2023/05/15 05:27:16;;;;;;;0.88;0.88;;;14.10;99.90;;;;;;4981749;28;20288;-64
2023/05/15 05:29:44;;;;;;;0.60;0.60;;;14.10;99.90;;;;;;4984225;28;20229;-62
2023/05/15 05:32:12;;;;;;;2.03;0.60;;;14.20;99.90;;;;;;4985513;28;20249;-62
2023/05/15 05:34:40;;;;;;;0.70;0.70;;;14.30;99.90;;;;;;4985923;28;20316;-62
2023/05/15 05:37:08;;;;;;;0.70;0.60;;;14.40;99.90;;;;;;4983657;28;20624;-62
2023/05/15 05:39:37;;;;;;;0.60;0.50;;;14.40;99.90;;;;;;4982782;28;20265;-62
2023/05/15 05:42:05;;;;;;;0.70;0.63;;;14.50;99.90;;;;;;4978792;28;20285;-63
2023/05/15 05:44:33;;;;;;;1.35;1.25;;;14.50;99.90;;;;;;4983896;28;20206;-63
2023/05/15 05:47:01;;;;;;;0.70;0.60;;;14.40;99.90;;;;;;4983510;28;20233;-62
2023/05/15 05:49:29;;;;;;;0.93;0.85;;;14.50;99.90;;;;;;4978892;28;20292;-63
2023/05/15 05:52:04;;;;;;;0.60;0.57;;;14.60;99.90;;;;;;4982600;28;20225;-62
2023/05/15 05:54:32;;;;;;;1.25;0.73;;;14.70;99.90;;;;;;4986835;28;20300;-62
2023/05/15 05:57:01;;;;;;;0.60;0.47;;;14.60;99.90;;;;;;4989842;28;20305;-62
2023/05/15 05:59:29;;;;;;;1.33;0.80;;;14.70;99.90;;;;;;4990149;28;20296;-63
2023/05/15 06:01:57;;;;;;;0.77;0.77;;;14.80;99.90;;;;;;4992333;28;20664;-63
2023/05/15 06:04:25;;;;;;;0.60;0.50;;;14.70;99.90;;;;;;4987317;28;20289;-63
2023/05/15 06:06:53;;;;;;;0.80;0.50;;;14.80;99.90;;;;;;4993433;28;20214;-63
2023/05/15 06:09:21;;;;;;;0.60;0.43;;;14.90;99.90;;;;;;4985546;28;20301;-63
2023/05/15 06:11:49;;;;;;;0.68;0.60;;;15.00;99.90;;;;;;4988259;28;20310;-63
2023/05/15 06:14:18;;;;;;;0.70;0.50;;;15.30;99.90;;;;;;4988780;28;20241;-65
2023/05/15 06:16:48;;;;;;;0.60;0.60;;;15.40;99.90;;;;;;4992247;28;20249;-63
2023/05/15 06:19:16;;;;;;;0.60;0.60;;;15.50;99.90;;;;;;4991720;28;20665;-63
2023/05/15 06:21:44;;;;;;;0.82;0.77;;;15.50;99.90;;;;;;4991229;28;20197;-63
2023/05/15 06:24:12;;;;;;;0.57;0.50;;;15.50;99.90;;;;;;4982304;28;20289;-63
2023/05/15 06:26:40;;;;;;;0.65;0.52;;;15.60;99.90;;;;;;4973588;28;20293;-63
2023/05/15 06:29:07;;;;;;;0.70;0.60;;;15.70;99.90;;;;;;4975739;28;20632;-63
2023/05/15 06:31:37;;;;;;;0.70;0.63;;;15.40;99.90;;;;;;4973730;28;20257;-63
2023/05/15 06:34:05;;;;;;;1.13;0.80;;;15.40;99.90;;;;;;4973583;28;20234;-63
2023/05/15 06:36:33;;;;;;;0.70;0.50;;;15.40;99.90;;;;;;4973474;28;20268;-63
2023/05/15 06:39:01;;;;;;;0.60;0.40;;;15.40;99.90;;;;;;4974643;28;20238;-64
2023/05/15 06:41:29;;;;;;;0.60;0.40;;;15.40;99.90;;;;;;4973625;28;20282;-64
2023/05/15 06:43:58;;;;;;;1.00;0.63;;;15.50;99.90;;;;;;4973747;28;20245;-63
2023/05/15 06:46:27;;;;;;;0.60;0.50;;;15.40;99.90;;;;;;4973780;28;20223;-63
2023/05/15 06:48:56;;;;;;;0.60;0.47;;;15.60;99.90;;;;;;4973373;28;20282;-62
2023/05/15 06:51:24;;;;;;;0.70;0.60;;;15.50;99.90;;;;;;4977704;28;20239;-63
2023/05/15 06:53:52;;;;;;;0.60;0.50;;;15.60;99.90;;;;;;4980359;28;20210;-62
2023/05/15 06:56:20;;;;;;;0.70;0.70;;;15.70;99.90;;;;;;4989956;28;20288;-64
2023/05/15 06:58:48;;;;;;;0.60;0.50;;;15.80;99.90;;;;;;4973465;28;20280;-62
2023/05/15 07:01:16;;;;;;;1.23;0.75;;;15.80;99.90;;;;;;4983004;28;20269;-63
2023/05/15 07:03:44;;;;;;;1.55;0.68;;;15.90;99.90;;;;;;4987058;28;20225;-63
2023/05/15 07:06:13;;;;;;;0.60;0.50;;;16.00;99.90;;;;;;4974566;28;20214;-63
2023/05/15 07:08:41;;;;;;;0.60;0.60;;;15.90;99.90;;;;;;4987320;28;20289;-63
2023/05/15 07:11:09;;;;;;;0.60;0.50;;;16.00;99.90;;;;;;4980223;28;20321;-63
2023/05/15 07:13:37;;;;;;;0.85;0.65;;;15.90;99.90;;;;;;4984884;28;20194;-63
2023/05/15 07:16:05;;;;;;;0.60;0.50;;;16.00;99.90;;;;;;4984133;28;20634;-63
2023/05/15 07:18:33;;;;;;;0.68;0.60;;;16.30;99.90;;;;;;4980203;28;20301;-62
2023/05/15 07:21:03;;;;;;;0.70;0.70;;;16.60;99.90;;;;;;4980664;28;20230;-63
2023/05/15 07:23:32;;;;;;;0.60;0.50;;;16.80;99.90;;;;;;4972988;28;20289;-63
2023/05/15 07:26:00;;;;;;;0.60;0.50;;;17.00;99.90;;;;;;4988087;28;20285;-63
2023/05/15 07:28:28;;;;;;;0.70;0.60;;;17.20;99.90;;;;;;4980078;28;20257;-63
2023/05/15 07:30:56;;;;;;;0.70;0.70;;;17.40;99.90;;;;;;4972743;28;20644;-63
2023/05/15 07:33:24;;;;;;;0.60;0.40;;;17.50;99.90;;;;;;4975450;28;20737;-63
2023/05/15 07:35:52;;;;;;;1.50;1.40;;;17.60;99.90;;;;;;4977723;28;20238;-63
2023/05/15 07:38:19;;;;;;;1.80;0.75;;;17.70;99.90;;;;;;4974629;28;20296;-63
2023/05/15 07:40:49;;;;;;;0.80;0.70;;;17.80;99.90;;;;;;4986223;28;20282;-63
2023/05/15 07:43:17;;;;;;;0.75;0.73;;;17.90;99.90;;;;;;4988326;28;20680;-63
2023/05/15 07:45:45;;;;;;;1.15;0.52;;;18.00;99.90;;;;;;4984035;28;20677;-63
2023/05/15 07:48:14;;;;;;;1.15;0.95;;;18.10;99.90;;;;;;4975593;28;20210;-63
2023/05/15 07:50:42;;;;;;;1.33;0.75;;;18.30;99.90;;;;;;4986537;28;20338;-64
2023/05/15 07:53:10;;;;;;;1.00;0.90;;;18.10;99.90;;;;;;4972873;28;20230;-63
2023/05/15 07:55:37;;;;;;;0.60;0.52;;;18.30;99.90;;;;;;4983826;28;20212;-63
2023/05/15 07:58:08;;;;;;;1.00;0.80;;;18.60;99.90;;;;;;4983142;28;20296;-63
2023/05/15 08:00:36;;;;;;;0.80;0.75;;;18.80;99.90;;;;;;4980110;28;20397;-63
2023/05/15 08:03:04;;;;;;;1.17;1.00;;;18.80;99.90;;;;;;4972167;28;20202;-63
2023/05/15 08:05:32;;;;;;;0.85;0.73;;;18.80;99.90;;;;;;4975087;28;20207;-63
2023/05/15 08:08:00;;;;;;;0.63;0.63;;;18.90;99.90;;;;;;4978244;28;20230;-63
2023/05/15 08:10:29;;;;;;;1.55;1.35;;;19.10;99.90;;;;;;4991013;28;20688;-63
2023/05/15 08:12:57;;;;;;;1.10;1.05;;;19.10;99.90;;;;;;4983237;28;20276;-63
2023/05/15 08:15:26;;;;;;;0.70;0.70;;;19.20;99.90;;;;;;4991373;28;20214;-62
2023/05/15 08:17:54;;;;;;;1.25;1.10;;;19.30;99.90;;;;;;4983056;28;20210;-63
2023/05/15 08:20:22;;;;;;;1.88;0.73;;;19.30;99.90;;;;;;4977038;28;20544;-63
2023/05/15 08:22:50;;;;;;;1.42;0.93;;;19.30;99.90;;;;;;4971798;28;20297;-63
2023/05/15 08:25:18;;;;;;;2.03;1.80;;;19.40;99.90;;;;;;4979536;28;20248;-63
2023/05/15 08:27:46;;;;;;;0.85;0.60;;;19.50;99.90;;;;;;4971684;28;20206;-64
2023/05/15 08:30:14;;;;;;;2.45;1.70;;;19.60;99.90;;;;;;4987760;28;20233;-64
2023/05/15 08:32:44;;;;;;;1.10;1.00;;;19.70;99.90;;;;;;4971344;28;20799;-63
2023/05/15 08:35:12;;;;;;;1.42;0.93;;;19.60;99.90;;;;;;4971498;28;20211;-64
2023/05/15 08:37:40;;;;;;;0.60;0.55;;;19.70;99.90;;;;;;4971828;28;20294;-63
2023/05/15 08:40:09;;;;;;;1.60;1.30;;;19.80;99.90;;;;;;4981487;28;20684;-63
2023/05/15 08:42:44;;;;;;;1.52;1.33;;;20.10;99.90;;;;;;4971523;28;20285;-62
2023/05/15 08:45:13;;;;;;;1.60;1.15;;;20.30;99.90;;;;;;4979600;28;20214;-63
2023/05/15 08:47:43;;;;;;;1.00;0.88;;;20.40;99.90;;;;;;4971626;28;20215;-64
2023/05/15 08:50:13;;;;;;;1.20;1.10;;;20.50;99.90;;;;;;4976146;28;20234;-63
2023/05/15 08:52:42;;;;;;;0.73;0.63;;;20.80;99.90;;;;;;4971410;28;20263;-62
2023/05/15 08:55:10;;;;;;;0.80;0.63;;;21.10;99.90;;;;;;4971541;28;20242;-64
2023/05/15 08:57:39;;;;;;;0.75;0.70;;;21.40;99.90;;;;;;4979130;28;20218;-64
2023/05/15 09:00:08;;;;;;;0.70;0.70;;;21.70;99.90;;;;;;4979376;28;20698;-63
2023/05/15 09:02:36;;;;;;;0.73;0.70;;;22.10;99.90;;;;;;4975058;28;20752;-64
2023/05/15 09:05:08;;;;;;;0.60;0.60;;;22.60;99.90;;;;;;4983084;28;20207;-64
2023/05/15 09:07:38;;;;;;;0.80;0.70;;;22.80;99.90;;;;;;4983416;28;20219;-63
2023/05/15 09:10:08;;;;;;;0.98;0.88;;;22.70;99.90;;;;;;4990874;28;20262;-63
2023/05/15 09:12:39;;;;;;;1.75;1.00;;;22.60;99.90;;;;;;4974847;28;20669;-63
2023/05/15 09:15:12;;;;;;;0.85;0.82;;;22.60;99.90;;;;;;4975541;28;20216;-62
2023/05/15 09:17:41;;;;;;;0.80;0.70;;;22.70;99.90;;;;;;4972439;28;20697;-64
2023/05/15 09:20:26;;;;;;;1.45;1.35;;;22.60;99.90;;;;;;4984596;28;20227;-64
2023/05/15 09:22:54;;;;;;;0.80;0.80;;;22.80;99.90;;;;;;4976225;28;20210;-63
2023/05/15 09:25:33;;;;;;;2.15;0.70;;;23.00;99.90;;;;;;4980407;28;20212;-64
2023/05/15 09:28:01;;;;;;;1.15;1.00;;;23.30;99.90;;;;;;4983875;28;20710;-63
2023/05/15 09:30:30;;;;;;;1.15;1.05;;;22.90;99.90;;;;;;4970931;28;20571;-64
2023/05/15 09:33:02;;;;;;;1.05;0.95;;;23.00;99.90;;;;;;4985164;28;20332;-64
2023/05/15 09:35:36;;;;;;;2.10;1.77;;;23.30;99.90;;;;;;4989777;28;20235;-64
2023/05/15 09:38:07;;;;;;;1.35;1.25;;;23.50;99.90;;;;;;4985746;28;20219;-64
2023/05/15 09:40:36;;;;;;;0.85;0.85;;;23.70;99.90;;;;;;4982539;28;20232;-63
2023/05/15 09:43:04;;;;;;;2.85;0.90;;;23.90;99.90;;;;;;4974176;28;20240;-63
2023/05/15 09:45:32;;;;;;;2.13;1.40;;;23.80;99.90;;;;;;4993285;28;20686;-64
2023/05/15 09:48:03;;;;;;;1.42;1.10;;;23.60;99.90;;;;;;4979459;28;20671;-63
2023/05/15 09:50:37;;;;;;;2.20;2.00;;;23.80;99.90;;;;;;4987813;28;20833;-63
2023/05/15 09:53:05;;;;;;;1.48;1.38;;;23.70;99.90;;;;;;4974385;28;20228;-64
2023/05/15 09:55:35;;;;;;;2.00;1.40;;;23.70;99.90;;;;;;4974145;28;20659;-64
2023/05/15 09:58:07;;;;;;;3.53;1.90;;;23.60;99.90;;;;;;4981450;28;20888;-63
2023/05/15 10:00:37;;;;;;;3.22;1.63;;;23.70;99.90;;;;;;4990342;28;20227;-64
2023/05/15 10:03:16;;;;;;;1.92;1.25;;;23.90;99.90;;;;;;4982749;28;20208;-64
2023/05/15 10:05:45;;;;;;;1.30;1.20;;;24.50;99.90;;;;;;4981452;28;20271;-64
2023/05/15 10:08:14;;;;;;;1.50;1.00;;;24.60;99.90;;;;;;4974349;28;20266;-64
2023/05/15 10:10:43;;;;;;;0.60;0.50;;;24.30;99.90;;;;;;4982423;28;20323;-64
2023/05/15 10:13:11;;;;;;;1.50;1.40;;;24.40;99.90;;;;;;4988487;28;20309;-64
2023/05/15 10:15:39;;;;;;;4.15;1.60;;;24.30;99.70;;;;;;4990089;28;20205;-64
2023/05/15 10:18:08;;;;;;;2.33;1.58;;;24.60;99.90;;;;;;4982379;28;20264;-64
2023/05/15 10:20:37;;;;;;;2.72;1.05;;;24.70;99.90;;;;;;4981959;28;20283;-64
2023/05/15 10:23:10;;;;;;;1.50;1.38;;;24.70;99.90;;;;;;4973998;28;20239;-64
2023/05/15 10:25:42;;;;;;;2.78;1.42;;;25.00;99.90;;;;;;4973637;28;20630;-64
2023/05/15 10:28:11;;;;;;;1.05;0.70;;;25.10;99.50;;;;;;4981838;28;20749;-64
2023/05/15 10:30:40;;;;;;;2.33;1.23;;;25.00;99.00;;;;;;4973986;28;20255;-63
2023/05/15 10:33:08;;;;;;;3.05;0.90;;;24.90;98.80;;;;;;4978991;28;20719;-64
2023/05/15 10:35:38;;;;;;;1.80;1.63;;;24.70;99.20;;;;;;4984627;28;20718;-64
2023/05/15 10:38:08;;;;;;;1.52;1.42;;;24.80;99.20;;;;;;4978301;28;20295;-64
2023/05/15 10:40:38;;;;;;;0.90;0.90;;;24.80;99.90;;;;;;4973665;28;20691;-64
2023/05/15 10:43:07;;;;;;;1.98;1.60;;;24.90;99.80;;;;;;4973727;28;20217;-64
2023/05/15 10:45:35;;;;;;;1.23;1.00;;;25.20;99.20;;;;;;4992341;28;20295;-64
2023/05/15 10:48:06;;;;;;;2.88;1.63;;;25.20;99.60;;;;;;4992262;28;20240;-64
2023/05/15 10:50:36;;;;;;;1.63;1.13;;;25.50;98.40;;;;;;4979749;28;20272;-64
2023/05/15 10:53:04;;;;;;;1.63;1.52;;;25.40;97.40;;;;;;4973666;28;20206;-64
2023/05/15 10:55:34;;;;;;;1.60;1.40;;;25.40;98.40;;;;;;4981165;28;20275;-64
2023/05/15 10:58:01;;;;;;;2.28;1.63;;;25.60;98.50;;;;;;4981622;28;20295;-64
2023/05/15 11:00:31;;;;;;;1.95;1.25;;;25.70;98.10;;;;;;4981463;28;20291;-64
2023/05/15 11:02:59;;;;;;;1.92;1.70;;;25.80;97.70;;;;;;4978606;28;20634;-64
2023/05/15 11:05:29;;;;;;;1.30;1.15;;;25.90;97.80;;;;;;4974776;28;20216;-64
2023/05/15 11:08:26;;;;;;;1.27;1.17;;;25.90;97.30;;;;;;4973487;28;20205;-64
2023/05/15 11:10:55;;;;;;;1.10;1.00;;;25.50;96.70;;;;;;4978306;28;20282;-64
2023/05/15 11:13:23;;;;;;;2.47;1.90;;;25.30;97.40;;;;;;4991253;28;20296;-63
2023/05/15 11:15:52;;;;;;;1.52;1.42;;;24.90;96.80;;;;;;4973100;28;20295;-64
2023/05/15 11:18:20;;;;;;;2.03;1.92;;;24.90;98.00;;;;;;4980860;28;20223;-64
2023/05/15 11:21:08;;;;;;;3.22;1.55;;;25.00;97.20;;;;;;4988222;28;20267;-64
2023/05/15 11:23:40;;;;;;;2.70;1.38;;;24.90;98.00;;;;;;4972654;28;20211;-64
2023/05/15 11:26:13;;;;;;;1.83;0.85;;;25.00;97.40;;;;;;4972803;28;20209;-64
2023/05/15 11:28:43;;;;;;;3.35;1.45;;;25.40;96.50;;;;;;4980899;28;20288;-64
2023/05/15 11:31:11;;;;;;;2.70;1.75;;;25.70;96.70;;;;;;4979862;28;20733;-64
2023/05/15 11:33:40;;;;;;;1.73;1.63;;;25.80;96.60;;;;;;4988449;28;20212;-64
2023/05/15 11:36:08;;;;;;;1.52;1.27;;;25.60;95.70;;;;;;4979580;28;20215;-64
2023/05/15 11:38:39;;;;;;;1.38;1.23;;;25.40;96.30;;;;;;4973316;28;20287;-64
2023/05/15 11:41:20;;;;;;;1.40;1.30;;;25.70;96.60;;;;;;4987250;28;20266;-64
2023/05/15 11:43:50;;;;;;;1.75;1.65;;;25.90;96.10;;;;;;4992082;28;20243;-64
2023/05/15 11:46:17;;;;;;;1.75;1.65;;;25.60;95.60;;;;;;4975867;28;20240;-64
2023/05/15 11:48:47;;;;;;;1.40;1.30;;;24.90;95.80;;;;;;4972610;28;20217;-64
2023/05/15 11:51:18;;;;;;;2.60;2.40;;;25.00;96.80;;;;;;4987726;28;20247;-64
2023/05/15 11:53:47;;;;;;;1.23;0.98;;;25.20;97.20;;;;;;4981387;28;20627;-64
2023/05/15 11:56:19;;;;;;;1.83;1.02;;;25.40;95.50;;;;;;4976201;28;20220;-63
2023/05/15 11:58:51;;;;;;;1.80;1.70;;;25.80;95.10;;;;;;4971990;28;20205;-64
2023/05/15 12:01:19;;;;;;;1.33;1.20;;;25.70;94.50;;;;;;4987983;28;20264;-64
2023/05/15 12:03:48;;;;;;;1.08;0.95;;;25.60;94.60;;;;;;4979909;28;20296;-64
2023/05/15 12:06:17;;;;;;;1.10;1.00;;;26.00;94.30;;;;;;4980459;28;20332;-64
2023/05/15 12:08:51;;;;;;;0.85;0.80;;;26.40;92.40;;;;;;4980121;28;20208;-64
2023/05/15 12:11:23;;;;;;;1.23;1.13;;;26.30;91.70;;;;;;4979895;28;20311;-64
2023/05/15 12:13:52;;;;;;;0.65;0.55;;;26.50;91.80;;;;;;4984661;28;20270;-64
2023/05/15 12:16:24;;;;;;;1.27;1.05;;;26.20;93.90;;;;;;4983337;28;20264;-64
2023/05/15 12:18:52;;;;;;;1.15;0.85;;;26.20;92.40;;;;;;4979180;28;20221;-63
2023/05/15 12:21:20;;;;;;;1.02;1.00;;;25.90;93.40;;;;;;4979242;28;20237;-64
2023/05/15 12:23:52;;;;;;;0.93;0.90;;;25.50;92.50;;;;;;4982188;28;20714;-64
2023/05/15 12:26:36;;;;;;;1.15;0.98;;;25.30;93.60;;;;;;4971694;28;20208;-64
2023/05/15 12:29:04;;;;;;;2.70;1.27;;;24.70;91.00;;;;;;4971597;28;20247;-64
2023/05/15 12:31:34;;;;;;;1.63;1.27;;;24.60;92.50;;;;;;4971605;28;20249;-64
2023/05/15 12:34:02;;;;;;;1.25;1.15;;;24.80;92.80;;;;;;4979524;28;20300;-63
2023/05/15 12:36:30;;;;;;;1.02;0.93;;;24.70;93.00;;;;;;4971354;28;20295;-63
2023/05/15 12:39:04;;;;;;;1.13;0.90;;;24.60;91.70;;;;;;4970658;28;20279;-64
2023/05/15 12:41:32;;;;;;;0.80;0.70;;;24.60;91.70;;;;;;4971465;28;20222;-64
2023/05/15 12:44:01;;;;;;;0.60;0.50;;;24.80;92.70;;;;;;4971679;28;20205;-64
2023/05/15 12:46:31;;;;;;;0.90;0.90;;;25.10;91.60;;;;;;4971138;28;20228;-64
2023/05/15 12:48:59;;;;;;;1.00;0.93;;;24.80;91.70;;;;;;4975634;28;20209;-63
2023/05/15 12:51:28;;;;;;;1.17;0.93;;;25.10;92.20;;;;;;4971690;28;20259;-64
2023/05/15 12:53:57;;;;;;;1.00;0.80;;;25.30;92.10;;;;;;4979783;28;20271;-65
2023/05/15 12:56:26;;;;;;;1.67;1.13;;;25.30;89.10;;;;;;4990570;28;20219;-64
2023/05/15 12:58:55;;;;;;;1.08;0.95;;;25.20;90.70;;;;;;4990147;28;20295;-64